createdAt,value
2023-03-20T00:02:19.020Z,4.03
2023-03-20T00:04:45.821Z,4.40
2023-03-20T00:07:16.889Z,3.83
2023-03-20T00:09:46.202Z,5.00
2023-03-20T00:12:24.280Z,6.13
2023-03-20T00:14:51.318Z,4.47
2023-03-20T00:17:21.903Z,5.20
2023-03-20T00:19:50.747Z,6.10
2023-03-20T00:22:19.556Z,4.95
2023-03-20T00:24:46.201Z,5.70
2023-03-20T00:27:14.810Z,4.80
2023-03-20T00:29:41.524Z,5.63
2023-03-20T00:32:16.884Z,6.15
2023-03-20T00:34:46.513Z,4.38
2023-03-20T00:37:13.118Z,5.60
2023-03-20T00:39:40.788Z,6.00
2023-03-20T00:42:14.650Z,6.97
2023-03-20T00:44:53.232Z,6.28
2023-03-20T00:47:23.324Z,6.20
2023-03-20T00:49:54.294Z,7.30
2023-03-20T00:52:26.629Z,7.80
2023-03-20T00:54:55.265Z,7.07
2023-03-20T00:57:30.551Z,7.05
2023-03-20T00:59:57.043Z,10.63
2023-03-20T01:02:29.440Z,7.10
2023-03-20T01:04:58.603Z,8.30
2023-03-20T01:07:27.841Z,7.00
2023-03-20T01:09:54.376Z,8.70
2023-03-20T01:12:23.913Z,7.05
2023-03-20T01:14:56.791Z,6.88
2023-03-20T01:17:24.906Z,4.63
2023-03-20T01:19:51.651Z,7.13
2023-03-20T01:22:20.640Z,6.28
2023-03-20T01:24:47.721Z,8.30
2023-03-20T01:27:17.032Z,6.78
2023-03-20T01:29:49.348Z,5.90
2023-03-20T01:32:18.588Z,8.15
2023-03-20T01:34:47.837Z,7.45
2023-03-20T01:37:18.890Z,7.88
2023-03-20T01:39:47.927Z,9.82
2023-03-20T01:42:16.386Z,8.63
2023-03-20T01:44:45.664Z,8.35
2023-03-20T01:47:25.934Z,8.93
2023-03-20T01:50:19.877Z,7.85
2023-03-20T01:52:49.079Z,6.20
2023-03-20T01:55:16.320Z,7.07
2023-03-20T01:57:42.992Z,8.80
2023-03-20T02:00:15.596Z,8.32
2023-03-20T02:02:47.749Z,7.05
2023-03-20T02:05:20.844Z,7.57
2023-03-20T02:07:59.101Z,6.27
2023-03-20T02:10:25.863Z,6.85
2023-03-20T02:12:53.094Z,7.60
2023-03-20T02:15:19.767Z,7.90
2023-03-20T02:17:49.053Z,6.40
2023-03-20T02:20:17.885Z,6.30
2023-03-20T02:22:56.577Z,8.05
2023-03-20T02:25:38.253Z,8.45
2023-03-20T02:28:44.630Z,8.93
2023-03-20T02:31:45.326Z,9.43
2023-03-20T02:34:14.920Z,11.27
2023-03-20T02:37:15.252Z,7.95
2023-03-20T02:39:52.238Z,9.00
2023-03-20T02:42:33.646Z,8.23
2023-03-20T02:45:29.344Z,9.98
2023-03-20T02:48:14.377Z,8.00
2023-03-20T02:50:58.603Z,8.63
2023-03-20T02:53:37.350Z,9.70
2023-03-20T02:56:24.237Z,9.13
2023-03-20T02:59:12.424Z,8.77
2023-03-20T03:01:53.382Z,9.90
2023-03-20T03:04:29.480Z,8.43
2023-03-20T03:06:58.641Z,8.98
2023-03-20T03:09:36.853Z,9.75
2023-03-20T03:12:21.389Z,9.00
2023-03-20T03:14:55.513Z,9.00
2023-03-20T03:17:25.236Z,8.73
2023-03-20T03:19:57.631Z,9.52
2023-03-20T03:22:27.117Z,8.70
2023-03-20T03:24:54.891Z,8.80
2023-03-20T03:27:27.378Z,9.13
2023-03-20T03:30:00.560Z,8.70
2023-03-20T03:32:46.089Z,8.07
2023-03-20T03:35:24.631Z,8.00
2023-03-20T03:37:57.042Z,6.95
2023-03-20T03:40:29.622Z,8.87
2023-03-20T03:43:02.116Z,7.28
2023-03-20T03:45:40.576Z,7.65
2023-03-20T03:48:18.678Z,10.10
2023-03-20T03:50:53.560Z,10.80
2023-03-20T03:53:28.025Z,12.23
2023-03-20T03:56:02.146Z,10.30
2023-03-20T03:58:37.925Z,8.98
2023-03-20T04:01:11.892Z,9.90
2023-03-20T04:03:45.260Z,9.68
2023-03-20T04:06:15.927Z,8.60
2023-03-20T04:08:45.342Z,10.25
2023-03-20T04:11:29.569Z,9.02
2023-03-20T04:13:58.976Z,9.95
2023-03-20T04:16:31.026Z,10.27
2023-03-20T04:18:57.903Z,8.90
2023-03-20T04:21:29.743Z,9.38
2023-03-20T04:23:56.275Z,7.72
2023-03-20T04:26:23.493Z,7.53
2023-03-20T04:28:50.878Z,6.93
2023-03-20T04:31:18.175Z,6.87
2023-03-20T04:33:45.418Z,9.38
2023-03-20T04:36:17.015Z,7.72
2023-03-20T04:38:46.299Z,8.63
2023-03-20T04:41:17.671Z,8.80
2023-03-20T04:43:46.451Z,9.43
2023-03-20T04:46:15.586Z,8.70
2023-03-20T04:48:44.604Z,8.65
2023-03-20T04:51:11.318Z,9.05
2023-03-20T04:53:42.345Z,8.75
2023-03-20T04:56:09.018Z,9.13
2023-03-20T04:58:36.486Z,9.75
2023-03-20T05:01:03.119Z,8.00
2023-03-20T05:03:29.678Z,8.05
2023-03-20T05:05:58.412Z,7.72
2023-03-20T05:08:25.831Z,8.03
2023-03-20T05:10:52.742Z,8.65
2023-03-20T05:13:21.645Z,8.43
2023-03-20T05:15:48.489Z,8.48
2023-03-20T05:18:15.084Z,8.60
2023-03-20T05:20:41.763Z,9.33
2023-03-20T05:23:08.357Z,9.35
2023-03-20T05:25:35.428Z,8.50
2023-03-20T05:28:02.505Z,8.88
2023-03-20T05:30:29.199Z,8.60
2023-03-20T05:32:56.583Z,8.97
2023-03-20T05:35:23.143Z,9.80
2023-03-20T05:37:49.708Z,10.20
2023-03-20T05:40:19.701Z,9.13
2023-03-20T05:42:48.603Z,10.57
2023-03-20T05:45:15.688Z,10.17
2023-03-20T05:47:44.499Z,9.55
2023-03-20T05:50:12.191Z,8.65
2023-03-20T05:52:38.793Z,8.88
2023-03-20T05:55:07.819Z,10.70
2023-03-20T05:57:34.493Z,7.70
2023-03-20T06:00:04.631Z,8.18
2023-03-20T06:02:33.572Z,7.32
2023-03-20T06:05:02.182Z,7.47
2023-03-20T06:07:33.537Z,7.70
2023-03-20T06:10:00.247Z,6.10
2023-03-20T06:12:29.762Z,6.82
2023-03-20T06:14:56.592Z,4.63
2023-03-20T06:17:23.208Z,6.72
2023-03-20T06:19:49.742Z,7.05
2023-03-20T06:22:18.542Z,8.13
2023-03-20T06:24:45.136Z,6.88
2023-03-20T06:27:11.876Z,7.38
2023-03-20T06:29:38.464Z,8.60
2023-03-20T06:32:08.022Z,7.95
2023-03-20T06:34:34.549Z,6.97
2023-03-20T06:37:01.249Z,8.10
2023-03-20T06:39:32.545Z,7.50
2023-03-20T06:41:59.212Z,8.80
2023-03-20T06:44:27.084Z,8.80
2023-03-20T06:46:53.789Z,7.13
2023-03-20T06:49:20.863Z,6.80
2023-03-20T06:51:48.224Z,5.47
2023-03-20T06:54:17.061Z,6.32
2023-03-20T06:56:46.567Z,6.43
2023-03-20T06:59:15.367Z,8.53
2023-03-20T07:01:41.921Z,5.88
2023-03-20T07:04:08.540Z,6.97
2023-03-20T07:06:35.254Z,5.95
2023-03-20T07:09:04.396Z,6.40
2023-03-20T07:11:31.535Z,5.63
2023-03-20T07:13:59.727Z,6.55
2023-03-20T07:16:29.252Z,6.07
2023-03-20T07:18:55.998Z,5.85
2023-03-20T07:21:23.326Z,6.78
2023-03-20T07:23:52.623Z,6.50
2023-03-20T07:26:19.179Z,5.07
2023-03-20T07:28:45.747Z,4.78
2023-03-20T07:31:24.694Z,5.22
2023-03-20T07:33:51.554Z,5.90
2023-03-20T07:36:20.709Z,6.40
2023-03-20T07:38:49.762Z,6.65
2023-03-20T07:41:16.898Z,7.13
2023-03-20T07:43:45.933Z,7.25
2023-03-20T07:46:14.976Z,5.88
2023-03-20T07:48:41.787Z,6.00
2023-03-20T07:51:12.890Z,5.75
2023-03-20T07:53:44.194Z,6.00
2023-03-20T07:56:13.935Z,5.75
2023-03-20T07:58:40.440Z,6.15
2023-03-20T08:01:09.493Z,5.73
2023-03-20T08:03:41.459Z,5.85
2023-03-20T08:06:11.291Z,3.00
2023-03-20T08:08:37.997Z,2.10
2023-03-20T08:11:09.775Z,2.50
2023-03-20T08:13:36.390Z,1.23
2023-03-20T08:16:07.490Z,2.30
2023-03-20T08:18:36.596Z,1.77
2023-03-20T08:21:03.751Z,1.67
2023-03-20T08:23:33.506Z,2.17
2023-03-20T08:26:00.167Z,1.77
2023-03-20T08:28:45.934Z,1.30
2023-03-20T08:31:17.912Z,1.40
2023-03-20T08:33:47.244Z,1.85
2023-03-20T08:36:15.960Z,2.03
2023-03-20T08:38:42.979Z,1.83
2023-03-20T08:41:12.421Z,2.10
2023-03-20T08:43:39.364Z,1.98
2023-03-20T08:46:06.516Z,2.47
2023-03-20T08:48:33.341Z,2.53
2023-03-20T08:51:00.227Z,1.80
2023-03-20T08:53:27.587Z,2.22
2023-03-20T08:55:54.791Z,2.10
2023-03-20T08:58:23.245Z,2.20
2023-03-20T09:00:52.933Z,2.58
2023-03-20T09:03:21.340Z,2.27
2023-03-20T09:05:52.416Z,2.60
2023-03-20T09:08:21.466Z,1.75
2023-03-20T09:10:51.391Z,2.50
2023-03-20T09:13:27.050Z,3.15
2023-03-20T09:15:59.174Z,2.90
2023-03-20T09:18:28.373Z,1.90
2023-03-20T09:20:56.778Z,1.67
2023-03-20T09:23:25.779Z,5.03
2023-03-20T09:25:54.562Z,2.58
2023-03-20T09:28:21.174Z,2.83
2023-03-20T09:30:47.862Z,2.13
2023-03-20T09:33:18.539Z,2.22
2023-03-20T09:35:47.496Z,4.47
2023-03-20T09:38:14.708Z,2.05
2023-03-20T09:40:52.443Z,1.77
2023-03-20T09:43:41.127Z,2.30
2023-03-20T09:46:16.106Z,2.17
2023-03-20T09:49:07.675Z,1.70
2023-03-20T09:51:43.071Z,2.63
2023-03-20T09:54:18.715Z,2.03
2023-03-20T09:56:45.835Z,1.65
2023-03-20T09:59:18.184Z,2.72
2023-03-20T10:01:50.911Z,1.98
2023-03-20T10:04:20.375Z,1.40
2023-03-20T10:06:47.175Z,1.30
2023-03-20T10:09:24.866Z,1.98
2023-03-20T10:11:54.986Z,1.80
2023-03-20T10:14:41.970Z,1.85
2023-03-20T10:17:17.523Z,1.63
2023-03-20T10:19:48.155Z,1.90
2023-03-20T10:22:26.740Z,2.20
2023-03-20T10:25:03.726Z,1.67
2023-03-20T10:27:39.930Z,1.08
2023-03-20T10:30:37.613Z,1.48
2023-03-20T10:33:29.161Z,2.13
2023-03-20T10:36:43.929Z,1.10
2023-03-20T10:39:38.834Z,1.60
2023-03-20T10:42:15.301Z,1.98
2023-03-20T10:44:46.757Z,1.45
2023-03-20T10:47:19.027Z,1.77
2023-03-20T10:49:58.409Z,2.47
2023-03-20T10:52:36.079Z,1.73
2023-03-20T10:55:08.534Z,2.10
2023-03-20T10:57:42.109Z,1.88
2023-03-20T11:00:19.822Z,3.67
2023-03-20T11:02:46.850Z,1.70
2023-03-20T11:05:34.478Z,5.30
2023-03-20T11:08:02.546Z,3.42
2023-03-20T11:10:32.204Z,1.50
2023-03-20T11:12:59.270Z,1.73
2023-03-20T11:15:34.371Z,1.20
2023-03-20T11:18:06.404Z,3.13
2023-03-20T11:20:39.347Z,2.80
2023-03-20T11:23:14.684Z,2.92
2023-03-20T11:25:50.877Z,1.80
2023-03-20T11:28:40.308Z,2.15
2023-03-20T11:31:13.692Z,2.60
2023-03-20T11:33:45.865Z,2.47
2023-03-20T11:36:36.787Z,2.20
2023-03-20T11:39:09.142Z,2.27
2023-03-20T11:41:51.256Z,2.35
2023-03-20T11:44:26.684Z,1.98
2023-03-20T11:46:57.644Z,2.22
2023-03-20T11:49:25.718Z,2.35
2023-03-20T11:51:55.788Z,2.07
2023-03-20T11:54:28.726Z,2.33
2023-03-20T11:56:56.756Z,2.05
2023-03-20T11:59:29.614Z,1.95
2023-03-20T12:02:00.787Z,1.73
2023-03-20T12:04:44.856Z,2.93
2023-03-20T12:07:17.148Z,1.80
2023-03-20T12:09:57.045Z,2.28
2023-03-20T12:12:23.566Z,1.48
2023-03-20T12:14:59.466Z,2.03
2023-03-20T12:18:04.105Z,2.27
2023-03-20T12:20:35.060Z,1.30
2023-03-20T12:23:39.955Z,2.85
2023-03-20T12:26:22.770Z,2.30
2023-03-20T12:29:01.410Z,1.95
2023-03-20T12:31:47.037Z,2.60
2023-03-20T12:34:25.773Z,2.22
2023-03-20T12:36:53.134Z,1.83
2023-03-20T12:39:25.953Z,2.10
2023-03-20T12:42:22.996Z,1.80
2023-03-20T12:44:55.844Z,3.07
2023-03-20T12:47:41.178Z,2.13
2023-03-20T12:50:23.080Z,2.67
2023-03-20T12:52:58.661Z,1.75
2023-03-20T12:55:33.972Z,2.05
2023-03-20T12:58:38.192Z,2.20
2023-03-20T13:01:11.584Z,1.73
2023-03-20T13:03:56.532Z,1.38
2023-03-20T13:06:39.986Z,2.35
2023-03-20T13:09:18.720Z,1.63
2023-03-20T13:11:45.230Z,2.50
2023-03-20T13:14:26.751Z,3.25
2023-03-20T13:17:14.374Z,2.85
2023-03-20T13:20:22.130Z,1.88
2023-03-20T13:23:16.914Z,1.70
2023-03-20T13:25:45.652Z,1.50
2023-03-20T13:28:24.405Z,2.25
2023-03-20T13:31:14.104Z,1.90
2023-03-20T13:34:11.867Z,2.72
2023-03-20T13:36:47.663Z,1.02
2023-03-20T13:39:35.616Z,3.13
2023-03-20T13:42:06.670Z,2.85
2023-03-20T13:44:34.802Z,1.40
2023-03-20T13:47:09.722Z,1.25
2023-03-20T13:49:39.084Z,2.53
2023-03-20T13:52:28.526Z,1.20
2023-03-20T13:55:22.560Z,1.85
2023-03-20T13:58:31.574Z,1.67
2023-03-20T14:01:04.452Z,1.92
2023-03-20T14:03:40.488Z,2.80
2023-03-20T14:06:42.192Z,1.63
2023-03-20T14:09:36.398Z,2.00
2023-03-20T14:12:12.681Z,1.70
2023-03-20T14:14:41.456Z,1.75
2023-03-20T14:17:23.543Z,1.83
2023-03-20T14:19:53.900Z,1.50
2023-03-20T14:22:28.975Z,1.35
2023-03-20T14:24:59.466Z,1.70
2023-03-20T14:27:43.293Z,2.30
2023-03-20T14:30:29.564Z,2.72
2023-03-20T14:33:21.787Z,3.53
2023-03-20T14:35:51.377Z,2.78
2023-03-20T14:38:26.479Z,3.15
2023-03-20T14:40:58.124Z,1.35
2023-03-20T14:44:01.682Z,2.42
2023-03-20T14:46:31.312Z,2.83
2023-03-20T14:49:16.876Z,1.33
2023-03-20T14:51:53.184Z,2.58
2023-03-20T14:54:24.487Z,2.40
2023-03-20T14:56:56.399Z,3.50
2023-03-20T14:59:24.570Z,1.20
2023-03-20T15:02:05.698Z,1.88
2023-03-20T15:04:43.991Z,2.20
2023-03-20T15:07:16.904Z,2.88
2023-03-20T15:09:48.571Z,2.15
2023-03-20T15:12:20.153Z,2.20
2023-03-20T15:15:06.513Z,1.88
2023-03-20T15:17:36.446Z,1.88
2023-03-20T15:20:09.186Z,3.13
2023-03-20T15:22:47.065Z,2.35
2023-03-20T15:25:18.065Z,1.90
2023-03-20T15:27:45.237Z,2.20
2023-03-20T15:30:19.330Z,3.05
2023-03-20T15:32:51.902Z,2.08
2023-03-20T15:35:23.693Z,2.30
2023-03-20T15:37:51.755Z,1.93
2023-03-20T15:40:23.915Z,1.63
2023-03-20T15:43:03.950Z,2.42
2023-03-20T15:45:38.584Z,1.80
2023-03-20T15:48:10.008Z,1.95
2023-03-20T15:50:43.500Z,2.50
2023-03-20T15:53:24.093Z,1.42
2023-03-20T15:56:16.809Z,1.95
2023-03-20T15:58:50.415Z,1.42
2023-03-20T16:01:24.670Z,1.88
2023-03-20T16:03:52.840Z,1.83
2023-03-20T16:06:24.006Z,1.95
2023-03-20T16:09:09.700Z,1.80
2023-03-20T16:11:42.105Z,2.45
2023-03-20T16:14:20.542Z,3.30
2023-03-20T16:16:49.448Z,2.37
2023-03-20T16:19:18.959Z,1.40
2023-03-20T16:21:55.717Z,3.08
2023-03-20T16:24:31.949Z,1.88
2023-03-20T16:26:59.043Z,1.75
2023-03-20T16:29:29.433Z,1.97
2023-03-20T16:32:04.040Z,2.30
2023-03-20T16:34:36.976Z,2.28
2023-03-20T16:37:21.862Z,3.35
2023-03-20T16:39:51.656Z,2.05
2023-03-20T16:42:29.538Z,4.23
2023-03-20T16:44:59.617Z,2.10
2023-03-20T16:47:39.210Z,2.67
2023-03-20T16:50:08.653Z,2.00
2023-03-20T16:52:46.295Z,3.08
2023-03-20T16:55:17.567Z,1.87
2023-03-20T16:57:49.673Z,2.15
2023-03-20T17:00:24.471Z,2.45
2023-03-20T17:03:01.118Z,2.22
2023-03-20T17:05:42.644Z,4.32
2023-03-20T17:08:15.815Z,9.33
2023-03-20T17:10:51.026Z,7.93
2023-03-20T17:13:20.128Z,38.83
2023-03-20T17:15:46.734Z,4.25
2023-03-20T17:18:14.459Z,1.90
2023-03-20T17:20:43.854Z,3.47
2023-03-20T17:23:23.781Z,2.50
2023-03-20T17:25:55.306Z,2.50
2023-03-20T17:28:28.151Z,2.75
2023-03-20T17:30:54.720Z,1.70
2023-03-20T17:33:21.437Z,2.33
2023-03-20T17:35:50.522Z,1.80
2023-03-20T17:38:22.155Z,1.33
2023-03-20T17:40:50.447Z,1.27
2023-03-20T17:43:18.204Z,2.08
2023-03-20T17:45:45.780Z,2.43
2023-03-20T17:48:15.924Z,1.75
2023-03-20T17:50:44.560Z,1.75
2023-03-20T17:53:24.315Z,1.40
2023-03-20T17:55:53.403Z,1.65
2023-03-20T17:58:22.766Z,2.20
2023-03-20T18:00:53.180Z,1.60
2023-03-20T18:03:20.733Z,2.42
2023-03-20T18:05:51.685Z,1.38
2023-03-20T18:08:21.376Z,3.15
2023-03-20T18:10:55.397Z,2.50
2023-03-20T18:13:29.301Z,2.45
2023-03-20T18:15:58.503Z,2.30
2023-03-20T18:18:27.667Z,2.15
2023-03-20T18:20:55.105Z,1.88
2023-03-20T18:23:22.002Z,2.50
2023-03-20T18:25:48.851Z,1.48
2023-03-20T18:28:24.527Z,2.70
2023-03-20T18:30:51.645Z,1.67
2023-03-20T18:33:25.389Z,1.45
2023-03-20T18:35:52.369Z,1.37
2023-03-20T18:38:21.295Z,2.20
2023-03-20T18:40:50.844Z,1.67
2023-03-20T18:43:19.904Z,2.90
2023-03-20T18:45:46.686Z,2.42
2023-03-20T18:48:14.045Z,1.67
2023-03-20T18:50:42.930Z,1.52
2023-03-20T18:53:10.555Z,1.35
2023-03-20T18:55:41.826Z,2.40
2023-03-20T18:58:25.285Z,2.03
2023-03-20T19:00:55.878Z,1.17
2023-03-20T19:03:25.752Z,2.15
2023-03-20T19:05:57.559Z,3.38
2023-03-20T19:08:26.855Z,1.85
2023-03-20T19:10:55.955Z,1.17
2023-03-20T19:13:27.671Z,3.50
2023-03-20T19:15:54.520Z,1.92
2023-03-20T19:18:26.161Z,2.15
2023-03-20T19:20:55.724Z,2.63
2023-03-20T19:23:29.039Z,2.75
2023-03-20T19:25:56.096Z,1.93
2023-03-20T19:28:38.851Z,1.60
2023-03-20T19:31:09.877Z,1.63
2023-03-20T19:33:38.371Z,1.38
2023-03-20T19:36:06.714Z,1.75
2023-03-20T19:38:34.451Z,1.77
2023-03-20T19:41:03.883Z,1.80
2023-03-20T19:43:32.835Z,1.35
2023-03-20T19:46:01.762Z,4.22
2023-03-20T19:48:46.812Z,2.42
2023-03-20T19:51:26.908Z,1.67
2023-03-20T19:53:54.474Z,4.15
2023-03-20T19:56:23.336Z,3.97
2023-03-20T19:58:53.029Z,2.63
2023-03-20T20:01:25.153Z,4.63
2023-03-20T20:03:53.682Z,4.63
2023-03-20T20:06:31.130Z,3.15
2023-03-20T20:08:58.754Z,2.28
2023-03-20T20:11:27.588Z,3.50
2023-03-20T20:14:11.943Z,1.77
2023-03-20T20:16:42.386Z,2.07
2023-03-20T20:19:12.589Z,2.00
2023-03-20T20:24:28.317Z,2.30
2023-03-20T20:27:15.295Z,2.08
2023-03-20T20:29:50.036Z,3.20
2023-03-20T20:32:18.690Z,2.42
2023-03-20T20:38:28.182Z,2.83
2023-03-20T20:40:31.515Z,2.85
2023-03-20T20:43:01.722Z,2.47
2023-03-20T20:45:31.530Z,2.67
2023-03-20T20:48:02.021Z,2.65
2023-03-20T20:50:30.823Z,2.05
2023-03-20T20:53:00.285Z,1.83
2023-03-20T20:55:27.402Z,3.83
2023-03-20T20:57:58.185Z,2.05
2023-03-20T21:00:45.754Z,3.00
2023-03-20T21:03:16.952Z,1.95
2023-03-20T21:05:45.868Z,3.30
2023-03-20T21:08:14.075Z,3.83
2023-03-20T21:10:40.998Z,3.72
2023-03-20T21:13:08.593Z,2.00
2023-03-20T21:15:38.326Z,2.22
2023-03-20T21:18:05.153Z,2.05
2023-03-20T21:20:33.948Z,1.80
2023-03-20T21:23:00.810Z,3.05
2023-03-20T21:25:40.219Z,2.08
2023-03-20T21:28:09.068Z,2.20
2023-03-20T21:30:46.765Z,2.83
2023-03-20T21:33:27.363Z,5.63
2023-03-20T21:35:54.081Z,4.35
2023-03-20T21:41:10.175Z,4.43
2023-03-20T21:43:39.815Z,5.82
2023-03-20T21:46:46.701Z,4.70
2023-03-20T21:55:04.031Z,6.55
2023-03-20T21:58:02.484Z,4.28
2023-03-20T22:02:57.083Z,2.88
2023-03-20T22:09:19.710Z,3.63
2023-03-20T22:17:40.694Z,2.15
2023-03-20T22:20:18.428Z,3.03
2023-03-20T22:23:07.596Z,3.08
2023-03-20T22:31:26.862Z,2.65
2023-03-20T22:42:30.651Z,1.60
2023-03-20T22:44:58.964Z,2.20
2023-03-20T22:47:29.670Z,3.92
2023-03-20T22:49:56.260Z,3.42
2023-03-20T22:52:35.065Z,6.32
2023-03-20T22:55:11.666Z,2.40
2023-03-20T22:57:47.735Z,4.32
2023-03-20T23:00:22.965Z,4.50
2023-03-20T23:02:52.894Z,4.50
2023-03-20T23:05:24.393Z,4.68
2023-03-20T23:07:53.388Z,3.63
2023-03-20T23:10:20.021Z,4.47
2023-03-20T23:12:46.565Z,3.83
2023-03-20T23:15:17.834Z,2.78
2023-03-20T23:17:49.217Z,3.50
2023-03-20T23:20:20.304Z,5.37
2023-03-20T23:22:48.058Z,4.30
2023-03-20T23:25:27.552Z,4.72
2023-03-20T23:28:03.974Z,3.10
2023-03-20T23:30:37.836Z,3.08
2023-03-20T23:33:10.416Z,5.03
2023-03-20T23:35:37.036Z,3.63
2023-03-20T23:38:03.686Z,7.75
2023-03-20T23:40:35.272Z,5.03
2023-03-20T23:43:01.917Z,5.70
2023-03-20T23:45:31.004Z,7.03
2023-03-20T23:47:59.674Z,5.15
2023-03-20T23:50:39.634Z,4.35
2023-03-20T23:53:20.697Z,5.82
2023-03-20T23:55:49.137Z,5.78
2023-03-20T23:58:16.481Z,5.07
